sensor_id;sensor_type;location;lat;lon;timestamp;P1;durP1;ratioP1;P2;durP2;ratioP2
35225;SDS011;21813;49.686;21.766;2023-07-02T00:01:47;29.38;;;25.23;;
35225;SDS011;21813;49.686;21.766;2023-07-02T00:04:13;28.35;;;25.13;;
35225;SDS011;21813;49.686;21.766;2023-07-02T00:09:16;31.60;;;25.02;;
35225;SDS011;21813;49.686;21.766;2023-07-02T00:12:09;30.52;;;25.95;;
35225;SDS011;21813;49.686;21.766;2023-07-02T00:14:38;29.30;;;24.77;;
35225;SDS011;21813;49.686;21.766;2023-07-02T00:17:05;29.73;;;26.17;;
35225;SDS011;21813;49.686;21.766;2023-07-02T00:19:43;28.30;;;24.65;;
35225;SDS011;21813;49.686;21.766;2023-07-02T00:25:44;28.00;;;24.63;;
35225;SDS011;21813;49.686;21.766;2023-07-02T00:28:15;30.90;;;26.55;;
35225;SDS011;21813;49.686;21.766;2023-07-02T00:30:42;29.55;;;25.92;;
35225;SDS011;21813;49.686;21.766;2023-07-02T00:33:15;27.83;;;24.55;;
35225;SDS011;21813;49.686;21.766;2023-07-02T00:35:41;27.05;;;23.25;;
35225;SDS011;21813;49.686;21.766;2023-07-02T00:38:08;27.02;;;24.10;;
35225;SDS011;21813;49.686;21.766;2023-07-02T00:40:34;26.85;;;23.33;;
35225;SDS011;21813;49.686;21.766;2023-07-02T00:43:01;37.03;;;25.55;;
35225;SDS011;21813;49.686;21.766;2023-07-02T00:45:34;28.83;;;24.85;;
35225;SDS011;21813;49.686;21.766;2023-07-02T00:48:00;31.27;;;25.10;;
35225;SDS011;21813;49.686;21.766;2023-07-02T00:50:26;29.17;;;25.35;;
35225;SDS011;21813;49.686;21.766;2023-07-02T00:53:00;31.67;;;24.85;;
35225;SDS011;21813;49.686;21.766;2023-07-02T00:55:26;30.38;;;26.30;;
35225;SDS011;21813;49.686;21.766;2023-07-02T00:57:55;28.45;;;24.58;;
35225;SDS011;21813;49.686;21.766;2023-07-02T01:00:22;27.45;;;24.48;;
35225;SDS011;21813;49.686;21.766;2023-07-02T01:02:55;27.25;;;24.27;;
35225;SDS011;21813;49.686;21.766;2023-07-02T01:05:30;29.05;;;25.30;;
35225;SDS011;21813;49.686;21.766;2023-07-02T01:08:20;28.92;;;25.85;;
35225;SDS011;21813;49.686;21.766;2023-07-02T01:10:46;28.80;;;25.42;;
35225;SDS011;21813;49.686;21.766;2023-07-02T01:13:28;32.80;;;26.65;;
35225;SDS011;21813;49.686;21.766;2023-07-02T01:16:05;31.70;;;26.80;;
35225;SDS011;21813;49.686;21.766;2023-07-02T01:18:49;34.08;;;26.88;;
35225;SDS011;21813;49.686;21.766;2023-07-02T01:21:26;31.05;;;26.80;;
35225;SDS011;21813;49.686;21.766;2023-07-02T01:23:59;29.48;;;26.25;;
35225;SDS011;21813;49.686;21.766;2023-07-02T01:26:35;31.92;;;26.13;;
35225;SDS011;21813;49.686;21.766;2023-07-02T01:29:18;30.27;;;26.23;;
35225;SDS011;21813;49.686;21.766;2023-07-02T01:32:17;32.13;;;25.05;;
35225;SDS011;21813;49.686;21.766;2023-07-02T01:34:43;27.20;;;23.83;;
35225;SDS011;21813;49.686;21.766;2023-07-02T01:37:09;28.17;;;24.67;;
35225;SDS011;21813;49.686;21.766;2023-07-02T01:39:43;34.63;;;25.98;;
35225;SDS011;21813;49.686;21.766;2023-07-02T01:44:50;35.15;;;25.50;;
35225;SDS011;21813;49.686;21.766;2023-07-02T01:47:16;34.28;;;26.60;;
35225;SDS011;21813;49.686;21.766;2023-07-02T01:49:49;35.40;;;25.92;;
35225;SDS011;21813;49.686;21.766;2023-07-02T01:52:15;29.50;;;25.00;;
35225;SDS011;21813;49.686;21.766;2023-07-02T01:54:42;30.55;;;26.42;;
35225;SDS011;21813;49.686;21.766;2023-07-02T01:57:08;31.80;;;25.10;;
35225;SDS011;21813;49.686;21.766;2023-07-02T01:59:35;28.17;;;24.67;;
35225;SDS011;21813;49.686;21.766;2023-07-02T02:02:00;32.08;;;25.42;;
35225;SDS011;21813;49.686;21.766;2023-07-02T02:04:32;29.15;;;25.52;;
35225;SDS011;21813;49.686;21.766;2023-07-02T02:06:57;32.00;;;24.80;;
35225;SDS011;21813;49.686;21.766;2023-07-02T02:09:25;29.77;;;25.30;;
35225;SDS011;21813;49.686;21.766;2023-07-02T02:11:56;28.70;;;24.35;;
35225;SDS011;21813;49.686;21.766;2023-07-02T02:14:23;31.73;;;24.45;;
35225;SDS011;21813;49.686;21.766;2023-07-02T02:16:49;31.02;;;24.75;;
35225;SDS011;21813;49.686;21.766;2023-07-02T02:19:22;27.02;;;24.05;;
35225;SDS011;21813;49.686;21.766;2023-07-02T02:21:56;31.02;;;24.13;;
35225;SDS011;21813;49.686;21.766;2023-07-02T02:24:22;25.63;;;22.92;;
35225;SDS011;21813;49.686;21.766;2023-07-02T02:26:48;27.20;;;23.70;;
35225;SDS011;21813;49.686;21.766;2023-07-02T02:29:19;26.35;;;22.67;;
35225;SDS011;21813;49.686;21.766;2023-07-02T02:31:44;27.73;;;24.00;;
35225;SDS011;21813;49.686;21.766;2023-07-02T02:34:12;26.23;;;23.42;;
35225;SDS011;21813;49.686;21.766;2023-07-02T02:36:38;26.48;;;22.90;;
35225;SDS011;21813;49.686;21.766;2023-07-02T02:39:14;26.33;;;23.42;;
35225;SDS011;21813;49.686;21.766;2023-07-02T02:41:42;31.23;;;25.10;;
35225;SDS011;21813;49.686;21.766;2023-07-02T02:44:09;27.40;;;24.30;;
35225;SDS011;21813;49.686;21.766;2023-07-02T02:46:35;27.77;;;24.90;;
35225;SDS011;21813;49.686;21.766;2023-07-02T02:49:02;30.67;;;23.65;;
35225;SDS011;21813;49.686;21.766;2023-07-02T02:51:27;30.17;;;25.02;;
35225;SDS011;21813;49.686;21.766;2023-07-02T02:53:53;30.33;;;25.15;;
35225;SDS011;21813;49.686;21.766;2023-07-02T02:56:19;27.42;;;24.33;;
35225;SDS011;21813;49.686;21.766;2023-07-02T02:58:53;31.20;;;25.85;;
35225;SDS011;21813;49.686;21.766;2023-07-02T03:01:19;27.85;;;24.55;;
35225;SDS011;21813;49.686;21.766;2023-07-02T03:04:02;29.88;;;25.08;;
35225;SDS011;21813;49.686;21.766;2023-07-02T03:06:29;31.00;;;25.15;;
35225;SDS011;21813;49.686;21.766;2023-07-02T03:08:55;32.20;;;25.20;;
35225;SDS011;21813;49.686;21.766;2023-07-02T03:11:26;31.33;;;25.60;;
35225;SDS011;21813;49.686;21.766;2023-07-02T03:13:52;29.30;;;25.55;;
35225;SDS011;21813;49.686;21.766;2023-07-02T03:16:18;28.58;;;23.38;;
35225;SDS011;21813;49.686;21.766;2023-07-02T03:18:46;26.73;;;23.10;;
35225;SDS011;21813;49.686;21.766;2023-07-02T03:21:22;29.00;;;23.25;;
35225;SDS011;21813;49.686;21.766;2023-07-02T03:23:51;25.40;;;22.83;;
35225;SDS011;21813;49.686;21.766;2023-07-02T03:26:31;24.90;;;22.35;;
35225;SDS011;21813;49.686;21.766;2023-07-02T03:28:58;28.60;;;22.55;;
35225;SDS011;21813;49.686;21.766;2023-07-02T03:31:24;27.80;;;22.65;;
35225;SDS011;21813;49.686;21.766;2023-07-02T03:34:08;24.60;;;22.02;;
35225;SDS011;21813;49.686;21.766;2023-07-02T03:37:08;26.80;;;21.75;;
35225;SDS011;21813;49.686;21.766;2023-07-02T03:40:08;27.48;;;21.48;;
35225;SDS011;21813;49.686;21.766;2023-07-02T03:45:25;24.30;;;20.60;;
35225;SDS011;21813;49.686;21.766;2023-07-02T03:50:26;25.38;;;21.38;;
35225;SDS011;21813;49.686;21.766;2023-07-02T03:52:51;25.27;;;22.52;;
35225;SDS011;21813;49.686;21.766;2023-07-02T03:55:22;25.95;;;21.33;;
35225;SDS011;21813;49.686;21.766;2023-07-02T03:57:48;24.52;;;21.70;;
35225;SDS011;21813;49.686;21.766;2023-07-02T04:00:24;27.27;;;22.02;;
35225;SDS011;21813;49.686;21.766;2023-07-02T04:02:49;25.50;;;22.00;;
35225;SDS011;21813;49.686;21.766;2023-07-02T04:05:16;25.65;;;22.70;;
35225;SDS011;21813;49.686;21.766;2023-07-02T04:07:51;26.40;;;22.42;;
35225;SDS011;21813;49.686;21.766;2023-07-02T04:10:49;25.98;;;21.83;;
35225;SDS011;21813;49.686;21.766;2023-07-02T04:13:17;22.98;;;20.45;;
35225;SDS011;21813;49.686;21.766;2023-07-02T04:15:44;24.30;;;19.77;;
35225;SDS011;21813;49.686;21.766;2023-07-02T04:18:13;25.00;;;19.65;;
35225;SDS011;21813;49.686;21.766;2023-07-02T04:20:44;24.77;;;20.55;;
35225;SDS011;21813;49.686;21.766;2023-07-02T04:23:10;22.10;;;17.85;;
35225;SDS011;21813;49.686;21.766;2023-07-02T04:25:40;21.40;;;18.48;;
35225;SDS011;21813;49.686;21.766;2023-07-02T04:28:06;24.25;;;17.70;;
35225;SDS011;21813;49.686;21.766;2023-07-02T04:30:53;21.25;;;17.70;;
35225;SDS011;21813;49.686;21.766;2023-07-02T04:33:22;20.95;;;16.80;;
35225;SDS011;21813;49.686;21.766;2023-07-02T04:35:49;18.23;;;14.20;;
35225;SDS011;21813;49.686;21.766;2023-07-02T04:38:44;16.48;;;14.70;;
35225;SDS011;21813;49.686;21.766;2023-07-02T04:41:30;17.05;;;14.90;;
35225;SDS011;21813;49.686;21.766;2023-07-02T04:44:13;18.60;;;13.77;;
35225;SDS011;21813;49.686;21.766;2023-07-02T04:46:57;16.85;;;13.02;;
35225;SDS011;21813;49.686;21.766;2023-07-02T04:49:29;19.65;;;13.20;;
35225;SDS011;21813;49.686;21.766;2023-07-02T04:51:55;15.88;;;12.93;;
35225;SDS011;21813;49.686;21.766;2023-07-02T04:54:29;16.58;;;12.93;;
35225;SDS011;21813;49.686;21.766;2023-07-02T04:56:55;15.73;;;13.20;;
35225;SDS011;21813;49.686;21.766;2023-07-02T04:59:22;16.33;;;13.48;;
35225;SDS011;21813;49.686;21.766;2023-07-02T05:01:47;15.35;;;12.63;;
35225;SDS011;21813;49.686;21.766;2023-07-02T05:04:14;15.68;;;13.35;;
35225;SDS011;21813;49.686;21.766;2023-07-02T05:06:39;15.05;;;12.77;;
35225;SDS011;21813;49.686;21.766;2023-07-02T05:09:09;14.48;;;12.23;;
35225;SDS011;21813;49.686;21.766;2023-07-02T05:11:35;15.65;;;13.40;;
35225;SDS011;21813;49.686;21.766;2023-07-02T05:14:05;15.23;;;13.02;;
35225;SDS011;21813;49.686;21.766;2023-07-02T05:16:30;15.32;;;12.70;;
35225;SDS011;21813;49.686;21.766;2023-07-02T05:19:00;17.17;;;12.85;;
35225;SDS011;21813;49.686;21.766;2023-07-02T05:21:25;18.48;;;12.70;;
35225;SDS011;21813;49.686;21.766;2023-07-02T05:23:55;17.52;;;12.88;;
35225;SDS011;21813;49.686;21.766;2023-07-02T05:26:44;18.58;;;13.60;;
35225;SDS011;21813;49.686;21.766;2023-07-02T05:29:11;18.35;;;13.35;;
35225;SDS011;21813;49.686;21.766;2023-07-02T05:31:36;17.60;;;14.10;;
35225;SDS011;21813;49.686;21.766;2023-07-02T05:34:12;18.58;;;13.13;;
35225;SDS011;21813;49.686;21.766;2023-07-02T05:36:37;19.98;;;13.48;;
35225;SDS011;21813;49.686;21.766;2023-07-02T05:39:11;14.73;;;12.60;;
35225;SDS011;21813;49.686;21.766;2023-07-02T05:41:45;17.58;;;13.30;;
35225;SDS011;21813;49.686;21.766;2023-07-02T05:44:19;15.95;;;12.55;;
35225;SDS011;21813;49.686;21.766;2023-07-02T05:46:51;17.48;;;13.43;;
35225;SDS011;21813;49.686;21.766;2023-07-02T05:49:17;21.20;;;13.40;;
35225;SDS011;21813;49.686;21.766;2023-07-02T05:54:34;17.65;;;14.07;;
35225;SDS011;21813;49.686;21.766;2023-07-02T05:57:16;16.80;;;14.07;;
35225;SDS011;21813;49.686;21.766;2023-07-02T05:59:42;18.88;;;14.60;;
35225;SDS011;21813;49.686;21.766;2023-07-02T06:02:10;16.80;;;13.85;;
35225;SDS011;21813;49.686;21.766;2023-07-02T06:04:37;16.27;;;13.68;;
35225;SDS011;21813;49.686;21.766;2023-07-02T06:07:09;21.20;;;15.13;;
35225;SDS011;21813;49.686;21.766;2023-07-02T06:09:35;19.15;;;14.70;;
35225;SDS011;21813;49.686;21.766;2023-07-02T06:12:01;17.83;;;13.40;;
35225;SDS011;21813;49.686;21.766;2023-07-02T06:14:28;20.02;;;15.15;;
35225;SDS011;21813;49.686;21.766;2023-07-02T06:16:56;16.25;;;14.23;;
35225;SDS011;21813;49.686;21.766;2023-07-02T06:19:30;16.15;;;13.43;;
35225;SDS011;21813;49.686;21.766;2023-07-02T06:21:57;15.25;;;13.70;;
35225;SDS011;21813;49.686;21.766;2023-07-02T06:24:24;15.45;;;12.95;;
35225;SDS011;21813;49.686;21.766;2023-07-02T06:26:50;15.55;;;11.98;;
35225;SDS011;21813;49.686;21.766;2023-07-02T06:29:21;14.25;;;11.82;;
35225;SDS011;21813;49.686;21.766;2023-07-02T06:31:48;14.38;;;11.63;;
35225;SDS011;21813;49.686;21.766;2023-07-02T06:34:14;17.25;;;12.55;;
35225;SDS011;21813;49.686;21.766;2023-07-02T06:36:40;13.63;;;12.18;;
35225;SDS011;21813;49.686;21.766;2023-07-02T06:39:10;15.35;;;11.73;;
35225;SDS011;21813;49.686;21.766;2023-07-02T06:41:44;13.57;;;11.93;;
35225;SDS011;21813;49.686;21.766;2023-07-02T06:44:14;12.82;;;11.43;;
35225;SDS011;21813;49.686;21.766;2023-07-02T06:46:45;13.77;;;11.02;;
35225;SDS011;21813;49.686;21.766;2023-07-02T06:49:23;14.68;;;12.38;;
35225;SDS011;21813;49.686;21.766;2023-07-02T06:51:49;14.60;;;12.45;;
35225;SDS011;21813;49.686;21.766;2023-07-02T06:54:23;14.00;;;11.63;;
35225;SDS011;21813;49.686;21.766;2023-07-02T06:56:55;16.65;;;12.15;;
35225;SDS011;21813;49.686;21.766;2023-07-02T06:59:21;14.18;;;12.07;;
35225;SDS011;21813;49.686;21.766;2023-07-02T07:01:51;12.88;;;11.35;;
35225;SDS011;21813;49.686;21.766;2023-07-02T07:04:20;15.55;;;12.75;;
35225;SDS011;21813;49.686;21.766;2023-07-02T07:06:45;14.13;;;10.98;;
35225;SDS011;21813;49.686;21.766;2023-07-02T07:09:12;13.70;;;10.68;;
35225;SDS011;21813;49.686;21.766;2023-07-02T07:11:38;13.02;;;10.32;;
35225;SDS011;21813;49.686;21.766;2023-07-02T07:14:04;10.65;;;8.98;;
35225;SDS011;21813;49.686;21.766;2023-07-02T07:16:33;10.55;;;8.63;;
35225;SDS011;21813;49.686;21.766;2023-07-02T07:19:02;11.95;;;9.18;;
35225;SDS011;21813;49.686;21.766;2023-07-02T07:21:28;10.88;;;9.07;;
35225;SDS011;21813;49.686;21.766;2023-07-02T07:24:01;10.27;;;8.55;;
35225;SDS011;21813;49.686;21.766;2023-07-02T07:29:46;10.73;;;8.30;;
35225;SDS011;21813;49.686;21.766;2023-07-02T07:32:12;9.35;;;8.13;;
35225;SDS011;21813;49.686;21.766;2023-07-02T07:34:38;9.95;;;8.18;;
35225;SDS011;21813;49.686;21.766;2023-07-02T07:37:04;10.15;;;8.10;;
35225;SDS011;21813;49.686;21.766;2023-07-02T07:39:36;8.20;;;7.32;;
35225;SDS011;21813;49.686;21.766;2023-07-02T07:42:11;8.73;;;7.83;;
35225;SDS011;21813;49.686;21.766;2023-07-02T07:44:36;8.65;;;6.47;;
35225;SDS011;21813;49.686;21.766;2023-07-02T07:47:08;6.75;;;6.05;;
35225;SDS011;21813;49.686;21.766;2023-07-02T07:49:34;9.13;;;6.40;;
35225;SDS011;21813;49.686;21.766;2023-07-02T07:52:01;7.72;;;6.35;;
35225;SDS011;21813;49.686;21.766;2023-07-02T07:54:26;7.43;;;6.47;;
35225;SDS011;21813;49.686;21.766;2023-07-02T07:56:53;8.10;;;5.55;;
35225;SDS011;21813;49.686;21.766;2023-07-02T07:59:19;9.10;;;6.20;;
35225;SDS011;21813;49.686;21.766;2023-07-02T08:01:44;7.97;;;6.60;;
35225;SDS011;21813;49.686;21.766;2023-07-02T08:04:12;7.80;;;5.97;;
35225;SDS011;21813;49.686;21.766;2023-07-02T08:06:38;9.30;;;6.45;;
35225;SDS011;21813;49.686;21.766;2023-07-02T08:09:03;9.05;;;6.97;;
35225;SDS011;21813;49.686;21.766;2023-07-02T08:11:30;8.13;;;7.05;;
35225;SDS011;21813;49.686;21.766;2023-07-02T08:13:56;8.90;;;7.60;;
35225;SDS011;21813;49.686;21.766;2023-07-02T08:16:22;10.18;;;7.82;;
35225;SDS011;21813;49.686;21.766;2023-07-02T08:18:48;8.98;;;8.05;;
35225;SDS011;21813;49.686;21.766;2023-07-02T08:21:13;9.00;;;7.50;;
35225;SDS011;21813;49.686;21.766;2023-07-02T08:23:41;9.40;;;8.15;;
35225;SDS011;21813;49.686;21.766;2023-07-02T08:26:09;9.88;;;8.40;;
35225;SDS011;21813;49.686;21.766;2023-07-02T08:28:36;9.10;;;8.13;;
35225;SDS011;21813;49.686;21.766;2023-07-02T08:31:06;9.77;;;7.90;;
35225;SDS011;21813;49.686;21.766;2023-07-02T08:33:31;9.52;;;7.90;;
35225;SDS011;21813;49.686;21.766;2023-07-02T08:35:58;12.20;;;8.00;;
35225;SDS011;21813;49.686;21.766;2023-07-02T08:38:25;10.77;;;8.35;;
35225;SDS011;21813;49.686;21.766;2023-07-02T08:40:53;10.52;;;7.72;;
35225;SDS011;21813;49.686;21.766;2023-07-02T08:43:21;10.05;;;7.88;;
35225;SDS011;21813;49.686;21.766;2023-07-02T08:46:22;9.05;;;8.10;;
35225;SDS011;21813;49.686;21.766;2023-07-02T08:48:48;10.52;;;7.50;;
35225;SDS011;21813;49.686;21.766;2023-07-02T08:51:15;9.80;;;7.70;;
35225;SDS011;21813;49.686;21.766;2023-07-02T08:53:44;9.98;;;7.90;;
35225;SDS011;21813;49.686;21.766;2023-07-02T08:56:10;9.20;;;7.35;;
35225;SDS011;21813;49.686;21.766;2023-07-02T08:58:36;9.85;;;7.22;;
35225;SDS011;21813;49.686;21.766;2023-07-02T09:01:07;12.90;;;7.15;;
35225;SDS011;21813;49.686;21.766;2023-07-02T09:03:40;11.75;;;7.47;;
35225;SDS011;21813;49.686;21.766;2023-07-02T09:06:07;9.32;;;7.30;;
35225;SDS011;21813;49.686;21.766;2023-07-02T09:08:37;9.05;;;5.55;;
35225;SDS011;21813;49.686;21.766;2023-07-02T09:16:25;8.15;;;6.30;;
35225;SDS011;21813;49.686;21.766;2023-07-02T09:19:08;7.75;;;5.95;;
35225;SDS011;21813;49.686;21.766;2023-07-02T09:21:52;7.85;;;6.05;;
35225;SDS011;21813;49.686;21.766;2023-07-02T09:24:25;17.50;;;6.38;;
35225;SDS011;21813;49.686;21.766;2023-07-02T09:26:53;7.78;;;6.05;;
35225;SDS011;21813;49.686;21.766;2023-07-02T09:29:31;8.90;;;6.50;;
35225;SDS011;21813;49.686;21.766;2023-07-02T09:32:08;9.77;;;6.70;;
35225;SDS011;21813;49.686;21.766;2023-07-02T09:34:35;8.55;;;6.45;;
35225;SDS011;21813;49.686;21.766;2023-07-02T09:37:03;9.95;;;6.72;;
35225;SDS011;21813;49.686;21.766;2023-07-02T09:39:33;7.43;;;6.13;;
35225;SDS011;21813;49.686;21.766;2023-07-02T09:42:03;7.95;;;6.75;;
35225;SDS011;21813;49.686;21.766;2023-07-02T09:44:31;7.22;;;5.45;;
35225;SDS011;21813;49.686;21.766;2023-07-02T09:49:34;8.43;;;6.30;;
35225;SDS011;21813;49.686;21.766;2023-07-02T09:52:07;7.85;;;5.45;;
35225;SDS011;21813;49.686;21.766;2023-07-02T09:54:35;7.38;;;5.70;;
35225;SDS011;21813;49.686;21.766;2023-07-02T09:57:11;7.50;;;5.38;;
35225;SDS011;21813;49.686;21.766;2023-07-02T09:59:37;7.93;;;5.82;;
35225;SDS011;21813;49.686;21.766;2023-07-02T10:02:10;8.20;;;5.82;;
35225;SDS011;21813;49.686;21.766;2023-07-02T10:04:52;9.60;;;5.53;;
35225;SDS011;21813;49.686;21.766;2023-07-02T10:07:26;8.20;;;5.95;;
35225;SDS011;21813;49.686;21.766;2023-07-02T10:09:57;8.02;;;5.95;;
35225;SDS011;21813;49.686;21.766;2023-07-02T10:12:28;11.75;;;5.95;;
35225;SDS011;21813;49.686;21.766;2023-07-02T10:15:10;8.25;;;6.20;;
35225;SDS011;21813;49.686;21.766;2023-07-02T10:18:01;9.50;;;6.32;;
35225;SDS011;21813;49.686;21.766;2023-07-02T10:20:43;9.15;;;6.75;;
35225;SDS011;21813;49.686;21.766;2023-07-02T10:29:02;6.85;;;5.35;;
35225;SDS011;21813;49.686;21.766;2023-07-02T10:31:28;7.28;;;5.55;;
35225;SDS011;21813;49.686;21.766;2023-07-02T10:33:55;8.88;;;5.60;;
35225;SDS011;21813;49.686;21.766;2023-07-02T10:36:21;7.53;;;5.63;;
35225;SDS011;21813;49.686;21.766;2023-07-02T10:39:01;7.65;;;6.00;;
35225;SDS011;21813;49.686;21.766;2023-07-02T10:41:35;9.02;;;5.38;;
35225;SDS011;21813;49.686;21.766;2023-07-02T10:44:14;8.50;;;4.90;;
35225;SDS011;21813;49.686;21.766;2023-07-02T10:46:47;6.35;;;4.25;;
35225;SDS011;21813;49.686;21.766;2023-07-02T10:49:20;5.38;;;4.00;;
35225;SDS011;21813;49.686;21.766;2023-07-02T10:51:56;5.88;;;3.50;;
35225;SDS011;21813;49.686;21.766;2023-07-02T10:54:38;4.47;;;3.25;;
35225;SDS011;21813;49.686;21.766;2023-07-02T10:57:15;4.22;;;3.40;;
35225;SDS011;21813;49.686;21.766;2023-07-02T10:59:48;4.88;;;3.67;;
35225;SDS011;21813;49.686;21.766;2023-07-02T11:02:14;6.72;;;3.50;;
35225;SDS011;21813;49.686;21.766;2023-07-02T11:04:45;6.20;;;3.45;;
35225;SDS011;21813;49.686;21.766;2023-07-02T11:07:22;5.65;;;3.75;;
35225;SDS011;21813;49.686;21.766;2023-07-02T11:09:54;9.63;;;4.20;;
35225;SDS011;21813;49.686;21.766;2023-07-02T11:12:27;6.85;;;3.78;;
35225;SDS011;21813;49.686;21.766;2023-07-02T11:15:12;4.53;;;3.63;;
35225;SDS011;21813;49.686;21.766;2023-07-02T11:17:46;6.25;;;3.63;;
35225;SDS011;21813;49.686;21.766;2023-07-02T11:20:12;8.68;;;5.70;;
35225;SDS011;21813;49.686;21.766;2023-07-02T11:22:41;7.70;;;5.05;;
35225;SDS011;21813;49.686;21.766;2023-07-02T11:25:13;9.48;;;5.18;;
35225;SDS011;21813;49.686;21.766;2023-07-02T11:27:49;7.25;;;5.10;;
35225;SDS011;21813;49.686;21.766;2023-07-02T11:30:14;7.93;;;5.57;;
35225;SDS011;21813;49.686;21.766;2023-07-02T11:32:50;6.90;;;5.53;;
35225;SDS011;21813;49.686;21.766;2023-07-02T11:35:17;7.60;;;5.15;;
35225;SDS011;21813;49.686;21.766;2023-07-02T11:37:46;6.40;;;4.68;;
35225;SDS011;21813;49.686;21.766;2023-07-02T11:40:14;7.78;;;5.43;;
35225;SDS011;21813;49.686;21.766;2023-07-02T11:42:41;5.97;;;4.75;;
35225;SDS011;21813;49.686;21.766;2023-07-02T11:45:07;5.90;;;5.05;;
35225;SDS011;21813;49.686;21.766;2023-07-02T11:47:43;6.35;;;5.18;;
35225;SDS011;21813;49.686;21.766;2023-07-02T11:50:10;8.00;;;4.63;;
35225;SDS011;21813;49.686;21.766;2023-07-02T11:52:36;7.30;;;5.03;;
35225;SDS011;21813;49.686;21.766;2023-07-02T11:55:02;6.65;;;5.20;;
35225;SDS011;21813;49.686;21.766;2023-07-02T11:57:29;6.43;;;4.90;;
35225;SDS011;21813;49.686;21.766;2023-07-02T11:59:55;6.07;;;4.82;;
35225;SDS011;21813;49.686;21.766;2023-07-02T12:02:23;6.90;;;4.45;;
35225;SDS011;21813;49.686;21.766;2023-07-02T12:04:48;7.65;;;4.75;;
35225;SDS011;21813;49.686;21.766;2023-07-02T12:07:21;8.68;;;5.00;;
35225;SDS011;21813;49.686;21.766;2023-07-02T12:09:51;8.77;;;5.18;;
35225;SDS011;21813;49.686;21.766;2023-07-02T12:12:20;5.38;;;4.43;;
35225;SDS011;21813;49.686;21.766;2023-07-02T12:14:46;6.25;;;4.97;;
35225;SDS011;21813;49.686;21.766;2023-07-02T12:17:13;6.15;;;4.53;;
35225;SDS011;21813;49.686;21.766;2023-07-02T12:19:39;6.47;;;4.57;;
35225;SDS011;21813;49.686;21.766;2023-07-02T12:22:14;6.40;;;4.63;;
35225;SDS011;21813;49.686;21.766;2023-07-02T12:24:43;6.25;;;4.78;;
35225;SDS011;21813;49.686;21.766;2023-07-02T12:27:12;7.07;;;4.78;;
35225;SDS011;21813;49.686;21.766;2023-07-02T12:29:38;7.03;;;4.88;;
35225;SDS011;21813;49.686;21.766;2023-07-02T12:32:04;5.50;;;4.75;;
35225;SDS011;21813;49.686;21.766;2023-07-02T12:34:31;6.50;;;4.90;;
35225;SDS011;21813;49.686;21.766;2023-07-02T12:37:06;5.45;;;4.60;;
35225;SDS011;21813;49.686;21.766;2023-07-02T12:39:36;9.05;;;5.75;;
35225;SDS011;21813;49.686;21.766;2023-07-02T12:42:15;6.13;;;4.88;;
35225;SDS011;21813;49.686;21.766;2023-07-02T12:44:41;6.13;;;4.90;;
35225;SDS011;21813;49.686;21.766;2023-07-02T12:47:16;7.55;;;5.45;;
35225;SDS011;21813;49.686;21.766;2023-07-02T12:49:47;7.82;;;5.03;;
35225;SDS011;21813;49.686;21.766;2023-07-02T12:52:17;6.13;;;5.00;;
35225;SDS011;21813;49.686;21.766;2023-07-02T12:55:28;6.22;;;4.88;;
35225;SDS011;21813;49.686;21.766;2023-07-02T12:58:04;7.45;;;5.03;;
35225;SDS011;21813;49.686;21.766;2023-07-02T13:00:32;7.57;;;4.85;;
35225;SDS011;21813;49.686;21.766;2023-07-02T13:03:16;6.85;;;4.97;;
35225;SDS011;21813;49.686;21.766;2023-07-02T13:05:53;8.60;;;5.13;;
35225;SDS011;21813;49.686;21.766;2023-07-02T13:08:27;8.55;;;5.13;;
35225;SDS011;21813;49.686;21.766;2023-07-02T13:11:19;11.27;;;5.30;;
35225;SDS011;21813;49.686;21.766;2023-07-02T13:13:45;8.50;;;4.80;;
35225;SDS011;21813;49.686;21.766;2023-07-02T13:16:11;6.47;;;4.88;;
35225;SDS011;21813;49.686;21.766;2023-07-02T13:18:40;8.55;;;4.22;;
35225;SDS011;21813;49.686;21.766;2023-07-02T13:21:14;7.93;;;4.35;;
35225;SDS011;21813;49.686;21.766;2023-07-02T13:23:50;8.23;;;4.55;;
35225;SDS011;21813;49.686;21.766;2023-07-02T13:26:33;6.82;;;4.65;;
35225;SDS011;21813;49.686;21.766;2023-07-02T13:28:59;8.13;;;4.25;;
35225;SDS011;21813;49.686;21.766;2023-07-02T13:31:35;6.18;;;4.60;;
35225;SDS011;21813;49.686;21.766;2023-07-02T13:34:03;6.47;;;4.28;;
35225;SDS011;21813;49.686;21.766;2023-07-02T13:39:53;9.13;;;4.53;;
35225;SDS011;21813;49.686;21.766;2023-07-02T13:42:26;6.18;;;3.65;;
35225;SDS011;21813;49.686;21.766;2023-07-02T13:44:52;8.25;;;4.43;;
35225;SDS011;21813;49.686;21.766;2023-07-02T13:47:27;7.15;;;4.88;;
35225;SDS011;21813;49.686;21.766;2023-07-02T13:49:55;6.93;;;5.53;;
35225;SDS011;21813;49.686;21.766;2023-07-02T13:52:21;13.65;;;5.30;;
35225;SDS011;21813;49.686;21.766;2023-07-02T13:54:47;7.07;;;5.40;;
35225;SDS011;21813;49.686;21.766;2023-07-02T13:57:24;6.90;;;5.07;;
35225;SDS011;21813;49.686;21.766;2023-07-02T13:59:50;9.20;;;5.90;;
35225;SDS011;21813;49.686;21.766;2023-07-02T14:02:20;10.75;;;5.82;;
35225;SDS011;21813;49.686;21.766;2023-07-02T14:04:46;9.10;;;5.65;;
35225;SDS011;21813;49.686;21.766;2023-07-02T14:07:13;8.75;;;5.90;;
35225;SDS011;21813;49.686;21.766;2023-07-02T14:09:49;8.75;;;5.93;;
35225;SDS011;21813;49.686;21.766;2023-07-02T14:12:33;6.80;;;5.75;;
35225;SDS011;21813;49.686;21.766;2023-07-02T14:15:05;8.35;;;5.70;;
35225;SDS011;21813;49.686;21.766;2023-07-02T14:17:32;8.68;;;5.65;;
35225;SDS011;21813;49.686;21.766;2023-07-02T14:20:03;9.80;;;5.95;;
35225;SDS011;21813;49.686;21.766;2023-07-02T14:22:49;9.15;;;5.35;;
35225;SDS011;21813;49.686;21.766;2023-07-02T14:25:21;7.82;;;4.32;;
35225;SDS011;21813;49.686;21.766;2023-07-02T14:28:04;6.05;;;3.22;;
35225;SDS011;21813;49.686;21.766;2023-07-02T14:32:58;4.60;;;3.38;;
35225;SDS011;21813;49.686;21.766;2023-07-02T14:35:36;4.65;;;3.50;;
35225;SDS011;21813;49.686;21.766;2023-07-02T14:38:05;3.17;;;2.50;;
35225;SDS011;21813;49.686;21.766;2023-07-02T14:40:31;4.93;;;3.25;;
35225;SDS011;21813;49.686;21.766;2023-07-02T14:42:57;5.65;;;3.15;;
35225;SDS011;21813;49.686;21.766;2023-07-02T14:45:42;7.75;;;3.63;;
35225;SDS011;21813;49.686;21.766;2023-07-02T14:48:29;5.35;;;3.60;;
35225;SDS011;21813;49.686;21.766;2023-07-02T14:50:56;8.73;;;3.13;;
35225;SDS011;21813;49.686;21.766;2023-07-02T14:53:28;6.15;;;3.00;;
35225;SDS011;21813;49.686;21.766;2023-07-02T14:55:55;4.88;;;3.60;;
35225;SDS011;21813;49.686;21.766;2023-07-02T14:58:36;6.63;;;3.00;;
35225;SDS011;21813;49.686;21.766;2023-07-02T15:01:04;6.03;;;3.38;;
35225;SDS011;21813;49.686;21.766;2023-07-02T15:03:37;10.52;;;3.25;;
35225;SDS011;21813;49.686;21.766;2023-07-02T15:06:08;4.63;;;2.75;;
35225;SDS011;21813;49.686;21.766;2023-07-02T15:08:50;4.97;;;2.88;;
35225;SDS011;21813;49.686;21.766;2023-07-02T15:11:17;6.43;;;3.05;;
35225;SDS011;21813;49.686;21.766;2023-07-02T15:13:52;4.35;;;2.92;;
35225;SDS011;21813;49.686;21.766;2023-07-02T15:16:18;4.28;;;2.55;;
35225;SDS011;21813;49.686;21.766;2023-07-02T15:18:53;3.50;;;2.55;;
35225;SDS011;21813;49.686;21.766;2023-07-02T15:21:18;2.92;;;2.55;;
35225;SDS011;21813;49.686;21.766;2023-07-02T15:23:45;8.10;;;2.80;;